Time;durP1;ratioP1;P1;durP2;ratioP2;P2;SDS_P1;SDS_P2;PMS_P1;PMS_P2;Temp;Humidity;BMP_temperature;BMP_pressure;BME280_temperature;BME280_humidity;BME280_pressure;Samples;Min_cycle;Max_cycle;Signal;HPM_P1;HPM_P2
2022/11/19 00:00:44;;;;;;;;;;;;;;;5.74;100.00;95625.38;5059083;28;20308;-73
2022/11/19 00:03:11;;;;;;;;;;;;;;;5.75;100.00;95624.34;5070434;28;19952;-73
2022/11/19 00:05:38;;;;;;;;;;;;;;;5.77;100.00;95624.94;5068215;28;19955;-73
2022/11/19 00:08:04;;;;;;;;;;;;;;;5.79;100.00;95622.94;5058763;28;19966;-73
2022/11/19 00:10:29;;;;;;;;;;;;;;;5.81;100.00;95626.13;5065629;28;20505;-73
2022/11/19 00:12:55;;;;;;;;;;;;;;;5.82;100.00;95618.13;5067987;28;19960;-73
2022/11/19 00:15:22;;;;;;;;;;;;;;;5.84;100.00;95621.31;5053948;28;20438;-73
2022/11/19 00:17:48;;;;;;;;;;;;;;;5.85;100.00;95609.88;5068450;28;19952;-74
2022/11/19 00:20:16;;;;;;;;;;;;;;;5.86;100.00;95608.91;5060320;28;20022;-74
2022/11/19 00:22:42;;;;;;;;;;;;;;;5.87;100.00;95600.06;5064496;28;19956;-74
2022/11/19 00:25:08;;;;;;;;;;;;;;;5.87;100.00;95607.88;5066126;28;19952;-74
2022/11/19 00:27:34;;;;;;;;;;;;;;;5.85;100.00;95599.47;5063286;28;19967;-74
2022/11/19 00:30:01;;;;;;;;;;;;;;;5.84;100.00;95599.72;5060939;28;19948;-74
2022/11/19 00:32:27;;;;;;;;;;;;;;;5.84;100.00;95605.69;5062243;28;19952;-75
2022/11/19 00:34:53;;;;;;;;;;;;;;;5.84;100.00;95607.50;5068538;28;19980;-74
2022/11/19 00:37:19;;;;;;;;;;;;;;;5.82;100.00;95604.31;5064385;28;20414;-74
2022/11/19 00:39:45;;;;;;;;;;;;;;;5.78;100.00;95603.13;5062616;28;19973;-74
2022/11/19 00:42:10;;;;;;;;;;;;;;;5.78;100.00;95603.13;5064289;28;19989;-74
2022/11/19 00:44:36;;;;;;;;;;;;;;;5.77;100.00;95599.72;5066409;28;19954;-75
2022/11/19 00:47:02;;;;;;;;;;;;;;;5.77;100.00;95597.13;5065845;28;19977;-74
2022/11/19 00:49:28;;;;;;;;;;;;;;;5.79;100.00;95604.72;5059048;28;20391;-74
2022/11/19 00:51:54;;;;;;;;;;;;;;;5.78;100.00;95601.34;5064621;28;19951;-74
2022/11/19 00:54:20;;;;;;;;;;;;;;;5.77;100.00;95604.94;5061323;28;19950;-74
2022/11/19 00:56:46;;;;;;;;;;;;;;;5.78;100.00;95611.75;5062947;28;19955;-73
2022/11/19 00:59:12;;;;;;;;;;;;;;;5.78;100.00;95605.75;5065961;28;20011;-74
2022/11/19 01:01:37;;;;;;;;;;;;;;;5.77;100.00;95610.13;5060909;28;19965;-74
2022/11/19 01:04:04;;;;;;;;;;;;;;;5.71;100.00;95605.75;5065816;28;19991;-74
2022/11/19 01:06:31;;;;;;;;;;;;;;;5.64;100.00;95611.00;5061949;28;19955;-74
2022/11/19 01:08:57;;;;;;;;;;;;;;;5.62;100.00;95620.81;5059930;28;19974;-74
2022/11/19 01:11:28;;;;;;;;;;;;;;;5.62;100.00;95618.19;5064834;28;20455;-74
2022/11/19 01:13:54;;;;;;;;;;;;;;;5.60;100.00;95624.63;5065502;28;19953;-74
2022/11/19 01:16:22;;;;;;;;;;;;;;;5.59;100.00;95618.63;5064666;28;19949;-74
2022/11/19 01:18:48;;;;;;;;;;;;;;;5.60;100.00;95614.22;5064043;28;19971;-74
2022/11/19 01:21:15;;;;;;;;;;;;;;;5.62;100.00;95625.22;5064286;28;19973;-74
2022/11/19 01:23:41;;;;;;;;;;;;;;;5.63;100.00;95621.63;5062320;28;19951;-74
2022/11/19 01:26:07;;;;;;;;;;;;;;;5.63;100.00;95614.63;5065317;28;20337;-74
2022/11/19 01:28:33;;;;;;;;;;;;;;;5.66;100.00;95605.59;5057288;28;19972;-74
2022/11/19 01:31:04;;;;;;;;;;;;;;;5.66;100.00;95627.19;5062849;28;20480;-75
2022/11/19 01:33:30;;;;;;;;;;;;;;;5.68;100.00;95616.59;5064914;28;19957;-74
2022/11/19 01:36:00;;;;;;;;;;;;;;;5.68;100.00;95619.19;5063206;28;19951;-74
2022/11/19 01:38:26;;;;;;;;;;;;;;;5.63;100.00;95622.41;5064541;28;19980;-74
2022/11/19 01:40:53;;;;;;;;;;;;;;;5.62;100.00;95613.00;5057646;28;19961;-74
2022/11/19 01:43:19;;;;;;;;;;;;;;;5.63;100.00;95619.03;5063472;28;19961;-74
2022/11/19 01:45:51;;;;;;;;;;;;;;;5.60;100.00;95609.81;5063315;28;20333;-74
2022/11/19 01:48:21;;;;;;;;;;;;;;;5.58;100.00;95616.22;5064083;28;20286;-74
2022/11/19 01:50:51;;;;;;;;;;;;;;;5.56;100.00;95613.03;5063362;28;19956;-74
2022/11/19 01:53:18;;;;;;;;;;;;;;;5.55;100.00;95624.44;5041851;28;20322;-74
2022/11/19 01:55:45;;;;;;;;;;;;;;;5.53;100.00;95622.06;5060584;28;19979;-74
2022/11/19 01:58:13;;;;;;;;;;;;;;;5.53;100.00;95627.25;5069714;28;19950;-73
2022/11/19 02:00:39;;;;;;;;;;;;;;;5.52;100.00;95622.25;5063400;28;20350;-73
2022/11/19 02:03:05;;;;;;;;;;;;;;;5.49;100.00;95631.25;5063359;28;20008;-73
2022/11/19 02:05:31;;;;;;;;;;;;;;;5.48;100.00;95627.06;5062194;28;20319;-73
2022/11/19 02:07:57;;;;;;;;;;;;;;;5.47;100.00;95621.06;5065159;28;20012;-73
2022/11/19 02:10:37;;;;;;;;;;;;;;;5.47;100.00;95628.88;5066700;28;20011;-74
2022/11/19 02:13:09;;;;;;;;;;;;;;;5.49;100.00;95628.66;5060144;28;19957;-74
2022/11/19 02:15:42;;;;;;;;;;;;;;;5.51;100.00;95628.47;5067544;28;19961;-74
2022/11/19 02:18:21;;;;;;;;;;;;;;;5.56;100.00;95631.25;5053659;28;19954;-74
2022/11/19 02:20:50;;;;;;;;;;;;;;;5.58;100.00;95627.41;5045927;28;19985;-75
2022/11/19 02:23:34;;;;;;;;;;;;;;;5.59;100.00;95626.44;5067372;28;19960;-74
2022/11/19 02:26:09;;;;;;;;;;;;;;;5.59;100.00;95630.84;5054207;28;20328;-74
2022/11/19 02:28:46;;;;;;;;;;;;;;;5.60;100.00;95624.63;5067680;28;20434;-73
2022/11/19 02:31:18;;;;;;;;;;;;;;;5.62;100.00;95625.22;5064757;28;19950;-73
2022/11/19 02:33:52;;;;;;;;;;;;;;;5.62;100.00;95628.59;5066471;28;19946;-74
2022/11/19 02:36:21;;;;;;;;;;;;;;;5.64;100.00;95623.19;5063587;28;19954;-74
2022/11/19 02:39:16;;;;;;;;;;;;;;;5.65;100.00;95620.41;5071069;28;19958;-74
2022/11/19 02:42:02;;;;;;;;;;;;;;;5.64;100.00;95625.81;5049111;28;20326;-74
2022/11/19 02:47:21;;;;;;;;;;;;;;;5.62;100.00;95622.59;5046230;28;20326;-73
2022/11/19 02:49:50;;;;;;;;;;;;;;;5.61;100.00;95627.03;5061407;28;19956;-74
2022/11/19 02:52:16;;;;;;;;;;;;;;;5.63;100.00;95625.00;5067769;28;19954;-74
2022/11/19 02:54:42;;;;;;;;;;;;;;;5.66;100.00;95629.00;5069816;28;19956;-73
2022/11/19 02:57:09;;;;;;;;;;;;;;;5.65;100.00;95628.22;5061077;28;19951;-73
2022/11/19 03:05:07;;;;;;;;;;;;;;;5.69;100.00;95625.97;5062559;28;19978;-74
2022/11/19 03:07:34;;;;;;;;;;;;;;;5.68;100.00;95632.19;5065352;28;19979;-74
2022/11/19 03:10:02;;;;;;;;;;;;;;;5.68;100.00;95629.59;5066552;28;19970;-74
2022/11/19 03:12:43;;;;;;;;;;;;;;;5.67;100.00;95626.19;5065024;28;19954;-74
2022/11/19 03:18:01;;;;;;;;;;;;;;;5.63;100.00;95624.22;5058625;28;19952;-74
2022/11/19 03:20:33;;;;;;;;;;;;;;;5.59;100.00;95620.44;5069402;28;19972;-74
2022/11/19 03:23:07;;;;;;;;;;;;;;;5.55;100.00;95625.25;5064930;28;19948;-73
2022/11/19 03:25:42;;;;;;;;;;;;;;;5.54;100.00;95635.84;5064470;28;19962;-74
2022/11/19 03:28:10;;;;;;;;;;;;;;;5.50;100.00;95630.25;5068910;28;19951;-73
2022/11/19 03:30:37;;;;;;;;;;;;;;;5.48;100.00;95633.06;5064181;28;19950;-73
2022/11/19 03:33:05;;;;;;;;;;;;;;;5.49;100.00;95639.84;5061051;28;19963;-73
2022/11/19 03:35:34;;;;;;;;;;;;;;;5.48;100.00;95637.47;5068169;28;19948;-74
2022/11/19 03:38:01;;;;;;;;;;;;;;;5.45;100.00;95637.88;5067102;28;20328;-73
2022/11/19 03:40:29;;;;;;;;;;;;;;;5.46;100.00;95642.88;5064902;28;19967;-74
2022/11/19 03:42:56;;;;;;;;;;;;;;;5.47;100.00;95639.25;5040965;28;19958;-74
2022/11/19 03:45:24;;;;;;;;;;;;;;;5.48;100.00;95642.66;5064028;28;19956;-74
2022/11/19 03:47:51;;;;;;;;;;;;;;;5.42;100.00;95639.09;5067004;28;20879;-74
2022/11/19 03:50:24;;;;;;;;;;;;;;;5.42;100.00;95643.50;5044818;28;19956;-74
2022/11/19 03:52:50;;;;;;;;;;;;;;;5.45;100.00;95645.69;5062674;28;19950;-74
2022/11/19 03:55:15;;;;;;;;;;;;;;;5.49;100.00;95646.88;5065172;28;20038;-74
2022/11/19 03:57:42;;;;;;;;;;;;;;;5.52;100.00;95643.84;5060748;28;19948;-74
2022/11/19 04:00:08;;;;;;;;;;;;;;;5.52;100.00;95649.03;5063677;28;20322;-74
2022/11/19 04:02:34;;;;;;;;;;;;;;;5.54;100.00;95648.84;5066953;28;19977;-74
2022/11/19 04:05:00;;;;;;;;;;;;;;;5.54;100.00;95651.44;5059635;28;20393;-74
2022/11/19 04:07:25;;;;;;;;;;;;;;;5.53;100.00;95648.06;5059300;28;19958;-75
2022/11/19 04:09:51;;;;;;;;;;;;;;;5.54;100.00;95641.03;5064751;28;20423;-76
2022/11/19 04:12:19;;;;;;;;;;;;;;;5.57;100.00;95646.66;5064214;28;19995;-75
2022/11/19 04:14:45;;;;;;;;;;;;;;;5.60;100.00;95648.03;5069501;28;19945;-74
2022/11/19 04:17:13;;;;;;;;;;;;;;;5.59;100.00;95649.03;5063362;28;20448;-74
2022/11/19 04:19:39;;;;;;;;;;;;;;;5.59;100.00;95649.03;5060930;28;20061;-74
2022/11/19 04:22:05;;;;;;;;;;;;;;;5.60;100.00;95651.41;5069999;28;19969;-75
2022/11/19 04:24:31;;;;;;;;;;;;;;;5.62;100.00;95657.22;5065428;28;19960;-74
2022/11/19 04:26:57;;;;;;;;;;;;;;;5.64;100.00;95649.22;5059574;28;19950;-75
2022/11/19 04:29:22;;;;;;;;;;;;;;;5.65;100.00;95656.81;5062744;28;19953;-74
2022/11/19 04:31:48;;;;;;;;;;;;;;;5.66;100.00;95655.81;5067601;28;20424;-75
2022/11/19 04:34:14;;;;;;;;;;;;;;;5.67;100.00;95656.63;5065129;28;19980;-75
2022/11/19 04:36:41;;;;;;;;;;;;;;;5.66;100.00;95653.19;5064235;28;20003;-74
2022/11/19 04:39:07;;;;;;;;;;;;;;;5.68;100.00;95653.78;5063689;28;19958;-75
2022/11/19 04:41:33;;;;;;;;;;;;;;;5.65;100.00;95654.22;5064738;28;19969;-75
2022/11/19 04:43:59;;;;;;;;;;;;;;;5.59;100.00;95654.25;5068450;28;19969;-75
2022/11/19 04:46:25;;;;;;;;;;;;;;;5.58;100.00;95652.63;5064742;28;19958;-74
2022/11/19 04:48:51;;;;;;;;;;;;;;;5.57;100.00;95657.03;5059730;28;20623;-75
2022/11/19 04:51:17;;;;;;;;;;;;;;;5.55;100.00;95660.88;5062600;28;19960;-75
2022/11/19 04:53:43;;;;;;;;;;;;;;;5.57;100.00;95664.06;5070415;28;20389;-74
2022/11/19 04:56:09;;;;;;;;;;;;;;;5.59;100.00;95664.66;5066828;28;20046;-77
2022/11/19 04:58:35;;;;;;;;;;;;;;;5.61;100.00;95663.44;5061720;28;19953;-76
2022/11/19 05:01:01;;;;;;;;;;;;;;;5.64;100.00;95662.22;5059799;28;19960;-76
2022/11/19 05:03:27;;;;;;;;;;;;;;;5.66;100.00;95668.81;5068846;28;19958;-75
2022/11/19 05:05:53;;;;;;;;;;;;;;;5.67;100.00;95665.22;5064459;28;20036;-75
2022/11/19 05:08:19;;;;;;;;;;;;;;;5.66;100.00;95666.19;5056256;28;20406;-75
2022/11/19 05:10:45;;;;;;;;;;;;;;;5.68;100.00;95666.00;5063624;28;20052;-75
2022/11/19 05:13:10;;;;;;;;;;;;;;;5.69;100.00;95652.81;5067293;28;19963;-75
2022/11/19 05:15:36;;;;;;;;;;;;;;;5.71;100.00;95655.19;5063620;28;19963;-74
2022/11/19 05:18:02;;;;;;;;;;;;;;;5.73;100.00;95660.19;5063597;28;20004;-74
2022/11/19 05:20:28;;;;;;;;;;;;;;;5.73;100.00;95650.56;5064889;28;19959;-75
2022/11/19 05:22:54;;;;;;;;;;;;;;;5.73;100.00;95647.97;5063691;28;19947;-74
2022/11/19 05:25:20;;;;;;;;;;;;;;;5.72;100.00;95651.59;5068065;28;20439;-75
2022/11/19 05:27:46;;;;;;;;;;;;;;;5.73;100.00;95657.59;5059282;28;19995;-74
2022/11/19 05:30:12;;;;;;;;;;;;;;;5.75;100.00;95658.16;5063732;28;19955;-75
2022/11/19 05:32:38;;;;;;;;;;;;;;;5.73;100.00;95663.56;5062229;28;19950;-75
2022/11/19 05:35:04;;;;;;;;;;;;;;;5.74;100.00;95661.78;5064530;28;19946;-74
2022/11/19 05:37:30;;;;;;;;;;;;;;;5.72;100.00;95662.00;5063484;28;19965;-74
2022/11/19 05:39:56;;;;;;;;;;;;;;;5.71;100.00;95662.97;5064310;28;19960;-74
2022/11/19 05:42:22;;;;;;;;;;;;;;;5.72;100.00;95654.19;5063356;28;19968;-74
2022/11/19 05:44:48;;;;;;;;;;;;;;;5.75;100.00;95668.56;5064901;28;20386;-75
2022/11/19 05:47:14;;;;;;;;;;;;;;;5.76;100.00;95665.78;5067983;28;19949;-74
2022/11/19 05:49:40;;;;;;;;;;;;;;;5.76;100.00;95665.78;5061413;28;19956;-75
2022/11/19 05:52:06;;;;;;;;;;;;;;;5.78;100.00;95662.97;5069631;28;20362;-74
2022/11/19 05:54:31;;;;;;;;;;;;;;;5.77;100.00;95659.56;5052407;28;20025;-74
2022/11/19 05:56:57;;;;;;;;;;;;;;;5.75;100.00;95677.19;5065896;28;20057;-74
2022/11/19 05:59:23;;;;;;;;;;;;;;;5.75;100.00;95668.56;5065698;28;19997;-74
2022/11/19 06:01:49;;;;;;;;;;;;;;;5.77;100.00;95676.97;5067611;28;20017;-74
2022/11/19 06:04:15;;;;;;;;;;;;;;;5.78;100.00;95676.78;5069848;28;20040;-74
2022/11/19 06:06:41;;;;;;;;;;;;;;;5.79;100.00;95680.97;5045663;28;20020;-74
2022/11/19 06:09:07;;;;;;;;;;;;;;;5.79;100.00;95677.56;5065650;28;20038;-74
2022/11/19 06:11:51;;;;;;;;;;;;;;;5.80;100.00;95682.56;5071547;28;20404;-74
2022/11/19 06:14:20;;;;;;;;;;;;;;;5.80;100.00;95674.78;5053923;28;19965;-75
2022/11/19 06:16:47;;;;;;;;;;;;;;;5.79;100.00;95678.34;5066567;28;19947;-75
2022/11/19 06:19:13;;;;;;;;;;;;;;;5.80;100.00;95685.19;5065858;28;19953;-74
2022/11/19 06:21:39;;;;;;;;;;;;;;;5.80;100.00;95682.56;5067883;28;20017;-74
2022/11/19 06:24:05;;;;;;;;;;;;;;;5.82;100.00;95687.59;5070306;28;19953;-75
2022/11/19 06:26:31;;;;;;;;;;;;;;;5.83;100.00;95692.56;5064482;28;19945;-75
2022/11/19 06:28:57;;;;;;;;;;;;;;;5.83;100.00;95702.16;5067010;28;20006;-75
2022/11/19 06:31:23;;;;;;;;;;;;;;;5.82;100.00;95700.59;5069860;28;19967;-74
2022/11/19 06:33:49;;;;;;;;;;;;;;;5.79;100.00;95709.59;5069528;28;19973;-74
2022/11/19 06:36:14;;;;;;;;;;;;;;;5.74;100.00;95706.81;5064786;28;20008;-74
2022/11/19 06:38:40;;;;;;;;;;;;;;;5.73;100.00;95709.59;5065906;28;19963;-75
2022/11/19 06:41:06;;;;;;;;;;;;;;;5.72;100.00;95714.03;5064895;28;19969;-75
2022/11/19 06:43:32;;;;;;;;;;;;;;;5.73;100.00;95722.63;5064760;28;19985;-75
2022/11/19 06:45:58;;;;;;;;;;;;;;;5.73;100.00;95715.59;5066964;28;20312;-74
2022/11/19 06:48:24;;;;;;;;;;;;;;;5.75;100.00;95710.19;5065776;28;20041;-75
2022/11/19 06:50:50;;;;;;;;;;;;;;;5.76;100.00;95710.00;5063542;28;20017;-74
2022/11/19 06:53:16;;;;;;;;;;;;;;;5.80;100.00;95724.19;5067365;28;20096;-75
2022/11/19 06:55:41;;;;;;;;;;;;;;;5.80;100.00;95721.59;5067918;28;19952;-75
2022/11/19 06:58:07;;;;;;;;;;;;;;;5.82;100.00;95721.41;5061892;28;20491;-75
2022/11/19 07:00:34;;;;;;;;;;;;;;;5.83;100.00;95723.78;5060845;28;19959;-75
2022/11/19 07:02:59;;;;;;;;;;;;;;;5.84;100.00;95724.59;5065749;28;19960;-74
2022/11/19 07:05:26;;;;;;;;;;;;;;;5.85;100.00;95728.78;5068463;28;20037;-75
2022/11/19 07:07:52;;;;;;;;;;;;;;;5.85;100.00;95724.38;5070872;28;19952;-77
2022/11/19 07:10:18;;;;;;;;;;;;;;;5.86;100.00;95723.38;5065201;28;19974;-74
2022/11/19 07:12:43;;;;;;;;;;;;;;;5.82;100.00;95737.81;5061858;28;20408;-74
2022/11/19 07:15:09;;;;;;;;;;;;;;;5.80;100.00;95739.03;5069945;28;19975;-75
2022/11/19 07:17:36;;;;;;;;;;;;;;;5.77;100.00;95736.81;5067804;28;19954;-75
2022/11/19 07:20:03;;;;;;;;;;;;;;;5.79;100.00;95737.41;5065710;28;19951;-74
2022/11/19 07:22:29;;;;;;;;;;;;;;;5.83;100.00;95742.00;5064532;28;20341;-75
2022/11/19 07:24:55;;;;;;;;;;;;;;;5.88;100.00;95741.41;5068057;28;20404;-74
2022/11/19 07:27:21;;;;;;;;;;;;;;;5.90;100.00;95737.59;5063566;28;19960;-74
2022/11/19 07:29:47;;;;;;;;;;;;;;;5.94;100.00;95745.75;5064149;28;19997;-74
2022/11/19 07:32:12;;;;;;;;;;;;;;;5.97;100.00;95742.00;5046021;28;20434;-74
2022/11/19 07:34:38;;;;;;;;;;;;;;;6.02;100.00;95752.56;5062469;28;19954;-74
2022/11/19 07:37:04;;;;;;;;;;;;;;;6.05;100.00;95742.56;5063542;28;19956;-75
2022/11/19 07:39:30;;;;;;;;;;;;;;;6.08;100.00;95754.34;5065202;28;19993;-75
2022/11/19 07:44:40;;;;;;;;;;;;;;;6.13;100.00;95751.13;5064606;28;20429;-75
2022/11/19 07:47:07;;;;;;;;;;;;;;;6.15;100.00;95752.50;5064634;28;19970;-75
2022/11/19 07:49:32;;;;;;;;;;;;;;;6.14;100.00;95755.34;5064907;28;19962;-74
2022/11/19 07:51:58;;;;;;;;;;;;;;;6.16;100.00;95755.94;5063366;28;20012;-75
2022/11/19 07:54:24;;;;;;;;;;;;;;;6.21;100.00;95748.28;5067347;28;19957;-74
2022/11/19 07:56:50;;;;;;;;;;;;;;;6.27;100.00;95747.47;5067373;28;19952;-75
2022/11/19 07:59:16;;;;;;;;;;;;;;;6.33;100.00;95754.44;5060643;28;19995;-75
2022/11/19 08:01:42;;;;;;;;;;;;;;;6.43;100.00;95754.81;5062208;28;19962;-75
2022/11/19 08:04:08;;;;;;;;;;;;;;;6.81;100.00;95758.41;5069866;28;19953;-74
2022/11/19 08:06:34;;;;;;;;;;;;;;;7.29;100.00;95756.00;5066599;28;19958;-75
2022/11/19 08:09:01;;;;;;;;;;;;;;;7.77;100.00;95753.75;5057897;28;20065;-74
2022/11/19 08:11:27;;;;;;;;;;;;;;;8.00;100.00;95742.66;5064009;28;19965;-75
2022/11/19 08:13:53;;;;;;;;;;;;;;;7.95;100.00;95745.16;5063177;28;19955;-75
2022/11/19 08:19:08;;;;;;;;;;;;;;;7.58;100.00;95747.72;5055869;28;19962;-74
2022/11/19 08:21:34;;;;;;;;;;;;;;;7.47;100.00;95757.06;5064306;28;19970;-74
2022/11/19 08:24:00;;;;;;;;;;;;;;;7.40;100.00;95764.16;5046883;28;19954;-75
2022/11/19 08:26:26;;;;;;;;;;;;;;;7.28;100.00;95764.84;5062213;28;20322;-75
2022/11/19 08:28:52;;;;;;;;;;;;;;;7.22;100.00;95767.50;5069712;28;20010;-74
2022/11/19 08:31:18;;;;;;;;;;;;;;;7.18;100.00;95774.97;5060752;28;19952;-74
2022/11/19 08:33:44;;;;;;;;;;;;;;;7.11;100.00;95777.59;5062307;28;20050;-75
2022/11/19 08:36:10;;;;;;;;;;;;;;;7.08;100.00;95778.06;5068174;28;20013;-75
2022/11/19 08:38:36;;;;;;;;;;;;;;;7.08;100.00;95775.44;5049574;28;19959;-75
2022/11/19 08:43:46;;;;;;;;;;;;;;;7.01;100.00;95768.66;5062903;28;19958;-74
2022/11/19 08:46:12;;;;;;;;;;;;;;;6.95;100.00;95774.72;5068525;28;19995;-75
2022/11/19 08:48:38;;;;;;;;;;;;;;;6.91;100.00;95776.97;5061783;28;19955;-75
2022/11/19 08:51:04;;;;;;;;;;;;;;;6.84;100.00;95782.22;5064333;28;20403;-75
2022/11/19 08:53:30;;;;;;;;;;;;;;;6.82;100.00;95786.03;5064623;28;19954;-75
2022/11/19 08:55:56;;;;;;;;;;;;;;;6.86;100.00;95789.81;5067646;28;19963;-75
2022/11/19 08:58:22;;;;;;;;;;;;;;;6.90;100.00;95791.78;5058336;28;19955;-74
2022/11/19 09:00:48;;;;;;;;;;;;;;;6.92;100.00;95788.97;5064210;28;20412;-75
2022/11/19 09:03:15;;;;;;;;;;;;;;;6.92;100.00;95794.19;5066957;28;19962;-75
2022/11/19 09:05:41;;;;;;;;;;;;;;;6.95;100.00;95798.19;5070173;28;19964;-75
2022/11/19 09:08:07;;;;;;;;;;;;;;;6.95;100.00;95799.00;5063294;28;20010;-75
2022/11/19 09:10:33;;;;;;;;;;;;;;;6.96;100.00;95794.59;5039927;28;20063;-75
2022/11/19 09:13:02;;;;;;;;;;;;;;;6.94;100.00;95802.59;5064058;28;20314;-75
2022/11/19 09:15:28;;;;;;;;;;;;;;;6.93;100.00;95803.63;5064635;28;19997;-74
2022/11/19 09:17:53;;;;;;;;;;;;;;;6.88;100.00;95816.47;5062740;28;19953;-75
2022/11/19 09:20:19;;;;;;;;;;;;;;;6.84;100.00;95808.25;5056915;28;20032;-74
2022/11/19 09:22:45;;;;;;;;;;;;;;;6.83;100.00;95811.09;5066906;28;19969;-75
2022/11/19 09:25:11;;;;;;;;;;;;;;;6.85;100.00;95807.28;5063967;28;19987;-75
2022/11/19 09:27:37;;;;;;;;;;;;;;;6.89;100.00;95805.84;5060047;28;20324;-75
2022/11/19 09:30:03;;;;;;;;;;;;;;;6.96;100.00;95808.41;5059606;28;19969;-75
2022/11/19 09:32:29;;;;;;;;;;;;;;;7.02;100.00;95802.34;5049634;28;19956;-75
2022/11/19 09:34:55;;;;;;;;;;;;;;;7.05;100.00;95814.94;5062722;28;19960;-76
2022/11/19 09:37:21;;;;;;;;;;;;;;;7.11;100.00;95808.91;5061084;28;20335;-75
2022/11/19 09:39:47;;;;;;;;;;;;;;;7.16;100.00;95813.50;5059017;28;19958;-75
2022/11/19 09:42:34;;;;;;;;;;;;;;;7.23;100.00;95818.66;5066298;28;19960;-75
2022/11/19 09:45:08;;;;;;;;;;;;;;;7.43;100.00;95814.09;5066328;28;19966;-75
2022/11/19 09:47:53;;;;;;;;;;;;;;;7.70;100.00;95813.84;5061894;28;19945;-75
2022/11/19 09:50:19;;;;;;;;;;;;;;;7.88;100.00;95808.66;5058447;28;19941;-75
2022/11/19 09:52:53;;;;;;;;;;;;;;;8.05;100.00;95808.09;5066623;28;19986;-75
2022/11/19 09:55:40;;;;;;;;;;;;;;;8.31;100.00;95804.38;5065419;28;20402;-75
2022/11/19 09:58:10;;;;;;;;;;;;;;;8.48;100.00;95791.53;5047030;28;20344;-75
2022/11/19 10:00:36;;;;;;;;;;;;;;;8.49;100.00;95803.59;5059403;28;19957;-75
2022/11/19 10:03:10;;;;;;;;;;;;;;;8.42;100.00;95803.69;5060207;28;20103;-75
2022/11/19 10:05:58;;;;;;;;;;;;;;;8.39;100.00;95808.53;5046850;28;19952;-74
2022/11/19 10:08:33;;;;;;;;;;;;;;;8.36;100.00;95811.56;5062888;28;19975;-74
2022/11/19 10:11:05;;;;;;;;;;;;;;;8.37;100.00;95810.56;5061456;28;19952;-74
2022/11/19 10:13:38;;;;;;;;;;;;;;;8.36;100.00;95817.59;5063172;28;19956;-74
2022/11/19 10:16:06;;;;;;;;;;;;;;;8.40;100.00;95807.50;5069278;28;19961;-74
2022/11/19 10:18:51;;;;;;;;;;;;;;;8.43;100.00;95809.72;5035876;28;19951;-75
2022/11/19 10:21:46;;;;;;;;;;;;;;;8.43;100.00;95799.25;5064120;28;19963;-74
2022/11/19 10:24:16;;;;;;;;;;;;;;;8.34;100.00;95785.66;5047222;28;19957;-78
2022/11/19 10:26:45;;;;;;;;;;;;;;;8.22;100.00;95795.25;5055438;28;19948;-74
2022/11/19 10:29:20;;;;;;;;;;;;;;;8.13;100.00;95808.59;5060350;28;19959;-74
2022/11/19 10:31:47;;;;;;;;;;;;;;;8.07;100.00;95801.63;5072770;28;20431;-74
2022/11/19 10:34:16;;;;;;;;;;;;;;;8.03;100.00;95808.31;5061576;28;19952;-74
2022/11/19 10:36:43;;;;;;;;;;;;;;;7.96;100.00;95801.56;5067045;28;19960;-74
2022/11/19 10:39:13;;;;;;;;;;;;;;;7.90;100.00;95811.84;5068157;28;19957;-74
2022/11/19 10:41:51;;;;;;;;;;;;;;;7.87;100.00;95812.31;5068722;28;19950;-74
2022/11/19 10:44:36;;;;;;;;;;;;;;;7.84;100.00;95804.09;5061239;28;20422;-74
2022/11/19 10:47:05;;;;;;;;;;;;;;;7.75;98.35;95793.16;5063741;28;19950;-75
2022/11/19 10:49:36;;;;;;;;;;;;;;;7.69;100.00;95801.84;5060684;28;19951;-75
2022/11/19 10:52:02;;;;;;;;;;;;;;;7.67;100.00;95796.81;5057089;28;19954;-74
2022/11/19 10:54:29;;;;;;;;;;;;;;;7.67;99.41;95789.00;5066207;28;19954;-74
2022/11/19 10:56:55;;;;;;;;;;;;;;;7.63;98.99;95789.63;5062993;28;20298;-74
2022/11/19 10:59:23;;;;;;;;;;;;;;;7.58;98.37;95779.03;5063470;28;19950;-74
2022/11/19 11:01:55;;;;;;;;;;;;;;;7.58;100.00;95800.72;5055592;28;19951;-74
2022/11/19 11:04:22;;;;;;;;;;;;;;;7.61;99.99;95789.06;5065211;28;19951;-74
2022/11/19 11:06:50;;;;;;;;;;;;;;;7.61;97.15;95776.81;5071523;28;19964;-74
2022/11/19 11:09:35;;;;;;;;;;;;;;;7.62;99.75;95788.84;5061658;28;19985;-74
2022/11/19 11:14:52;;;;;;;;;;;;;;;7.75;95.97;95759.22;5042115;28;19954;-74
2022/11/19 11:17:19;;;;;;;;;;;;;;;7.79;97.40;95773.44;5062287;28;19965;-74
2022/11/19 11:19:54;;;;;;;;;;;;;;;7.85;97.69;95771.75;5066351;28;19947;-74
2022/11/19 11:22:24;;;;;;;;;;;;;;;7.89;97.89;95778.13;5061630;28;19960;-75
2022/11/19 11:24:50;;;;;;;;;;;;;;;7.88;95.89;95760.88;5052058;28;19963;-74
2022/11/19 11:27:19;;;;;;;;;;;;;;;7.90;95.52;95761.47;5070650;28;19954;-74
2022/11/19 11:29:45;;;;;;;;;;;;;;;7.93;98.76;95779.28;5060772;28;20019;-75
2022/11/19 11:32:30;;;;;;;;;;;;;;;7.97;98.65;95772.63;5064988;28;20046;-74
2022/11/19 11:34:56;;;;;;;;;;;;;;;8.07;98.44;95766.91;5070722;28;19951;-76
2022/11/19 11:37:22;;;;;;;;;;;;;;;8.16;99.21;95777.84;5065486;28;19960;-75
2022/11/19 11:39:51;;;;;;;;;;;;;;;8.23;96.84;95762.88;5066056;28;19953;-74
2022/11/19 11:42:18;;;;;;;;;;;;;;;8.31;96.25;95766.00;5058197;28;19971;-75
2022/11/19 11:44:52;;;;;;;;;;;;;;;8.41;94.39;95754.25;5069912;28;19955;-74
2022/11/19 11:47:41;;;;;;;;;;;;;;;8.47;95.54;95772.47;5069367;28;19956;-75
2022/11/19 11:50:13;;;;;;;;;;;;;;;8.53;90.30;95736.81;5056374;28;19955;-74
2022/11/19 11:52:41;;;;;;;;;;;;;;;8.55;92.27;95760.91;5065362;28;19948;-74
2022/11/19 11:55:13;;;;;;;;;;;;;;;8.57;92.31;95758.88;5059039;28;19962;-74
2022/11/19 11:57:58;;;;;;;;;;;;;;;8.52;87.33;95724.75;5063621;28;19948;-74
2022/11/19 12:00:30;;;;;;;;;;;;;;;8.46;91.49;95759.63;5054096;28;19950;-74
2022/11/19 12:03:06;;;;;;;;;;;;;;;8.38;89.07;95736.38;5056322;28;19972;-74
2022/11/19 12:05:35;;;;;;;;;;;;;;;8.31;89.18;95739.88;5067090;28;20327;-74
2022/11/19 12:08:03;;;;;;;;;;;;;;;8.28;90.65;95752.59;5067426;28;20311;-74
2022/11/19 12:10:40;;;;;;;;;;;;;;;8.24;90.45;95754.03;5058503;28;19975;-74
2022/11/19 12:13:09;;;;;;;;;;;;;;;8.22;92.17;95756.06;5066718;28;19948;-74
2022/11/19 12:15:53;;;;;;;;;;;;;;;8.19;90.89;95757.31;5063444;28;19952;-74
2022/11/19 12:18:36;;;;;;;;;;;;;;;8.14;89.60;95749.31;5064274;28;19944;-74
2022/11/19 12:21:08;;;;;;;;;;;;;;;8.06;88.09;95737.38;5066498;28;19955;-74
2022/11/19 12:23:44;;;;;;;;;;;;;;;7.99;86.96;95726.22;5063295;28;19969;-74
2022/11/19 12:26:11;;;;;;;;;;;;;;;7.91;90.42;95769.06;5065581;28;20304;-74
2022/11/19 12:28:40;;;;;;;;;;;;;;;7.85;91.91;95767.34;5067857;28;19960;-74
2022/11/19 12:31:18;;;;;;;;;;;;;;;7.83;92.01;95774.59;5066503;28;19951;-74
2022/11/19 12:33:44;;;;;;;;;;;;;;;7.81;93.19;95778.41;5058860;28;20341;-74
2022/11/19 12:36:13;;;;;;;;;;;;;;;7.78;94.14;95779.66;5064553;28;19953;-74
2022/11/19 12:38:43;;;;;;;;;;;;;;;7.78;90.78;95763.19;5068248;28;19953;-74
2022/11/19 12:41:15;;;;;;;;;;;;;;;7.76;91.87;95771.22;5067498;28;19955;-75
2022/11/19 12:44:13;;;;;;;;;;;;;;;7.71;90.33;95758.03;5041891;28;19967;-74
2022/11/19 12:46:55;;;;;;;;;;;;;;;7.73;94.19;95789.94;5000393;28;19952;-74
2022/11/19 12:49:37;;;;;;;;;;;;;;;7.76;93.87;95786.91;5050461;28;19948;-74
2022/11/19 12:52:23;;;;;;;;;;;;;;;7.78;94.07;95784.88;5059136;28;19958;-74
2022/11/19 12:55:11;;;;;;;;;;;;;;;7.84;93.62;95791.03;5043490;28;19950;-74
2022/11/19 12:57:55;;;;;;;;;;;;;;;7.88;93.04;95779.16;5051039;28;19956;-74
2022/11/19 13:00:22;;;;;;;;;;;;;;;7.90;93.16;95779.75;5056564;28;20307;-75
2022/11/19 13:03:07;;;;;;;;;;;;;;;7.91;91.89;95770.88;5065459;28;19968;-74
2022/11/19 13:05:37;;;;;;;;;;;;;;;7.90;92.10;95774.53;5053778;28;19947;-74
2022/11/19 13:08:29;;;;;;;;;;;;;;;7.88;91.39;95768.72;5068114;28;19962;-74
2022/11/19 13:11:04;;;;;;;;;;;;;;;7.85;92.23;95771.75;5024996;28;20272;-74
2022/11/19 13:13:31;;;;;;;;;;;;;;;7.85;92.50;95774.34;5062366;28;19957;-74
2022/11/19 13:16:06;;;;;;;;;;;;;;;7.84;91.33;95765.72;5062650;28;19959;-73
2022/11/19 13:18:34;;;;;;;;;;;;;;;7.82;91.32;95769.56;5068069;28;19959;-74